sensor_id;sensor_type;location;lat;lon;timestamp;pressure;altitude;pressure_sealevel;temperature;humidity
8292;BME280;4184;42.724;23.308;2022-09-28T00:02:19;94410.47;;;15.39;77.25
8292;BME280;4184;42.724;23.308;2022-09-28T00:04:46;94415.47;;;15.41;77.28
8292;BME280;4184;42.724;23.308;2022-09-28T00:07:14;94407.66;;;15.41;77.41
8292;BME280;4184;42.724;23.308;2022-09-28T00:09:42;94409.28;;;15.42;77.16
8292;BME280;4184;42.724;23.308;2022-09-28T00:12:10;94411.69;;;15.43;77.37
8292;BME280;4184;42.724;23.308;2022-09-28T00:14:38;94406.50;;;15.43;77.38
8292;BME280;4184;42.724;23.308;2022-09-28T00:17:09;94413.16;;;15.46;77.37
8292;BME280;4184;42.724;23.308;2022-09-28T00:19:37;94404.34;;;15.47;77.15
8292;BME280;4184;42.724;23.308;2022-09-28T00:22:05;94406.94;;;15.47;77.26
8292;BME280;4184;42.724;23.308;2022-09-28T00:24:33;94402.72;;;15.46;77.20
8292;BME280;4184;42.724;23.308;2022-09-28T00:27:00;94392.47;;;15.44;76.96
8292;BME280;4184;42.724;23.308;2022-09-28T00:29:30;94390.25;;;15.41;77.27
8292;BME280;4184;42.724;23.308;2022-09-28T00:32:00;94388.22;;;15.37;77.62
8292;BME280;4184;42.724;23.308;2022-09-28T00:34:31;94392.56;;;15.29;77.75
8292;BME280;4184;42.724;23.308;2022-09-28T00:37:00;94395.72;;;15.25;77.50
8292;BME280;4184;42.724;23.308;2022-09-28T00:39:29;94394.28;;;15.22;77.92
8292;BME280;4184;42.724;23.308;2022-09-28T00:41:58;94395.28;;;15.21;77.59
8292;BME280;4184;42.724;23.308;2022-09-28T00:44:38;94395.66;;;15.18;77.78
8292;BME280;4184;42.724;23.308;2022-09-28T00:47:14;94405.88;;;15.20;77.90
8292;BME280;4184;42.724;23.308;2022-09-28T00:49:48;94398.88;;;15.20;77.34
8292;BME280;4184;42.724;23.308;2022-09-28T00:52:21;94397.88;;;15.21;77.53
8292;BME280;4184;42.724;23.308;2022-09-28T00:54:52;94393.31;;;15.23;77.82
8292;BME280;4184;42.724;23.308;2022-09-28T00:57:21;94388.09;;;15.23;77.67
8292;BME280;4184;42.724;23.308;2022-09-28T00:59:50;94399.88;;;15.19;77.60
8292;BME280;4184;42.724;23.308;2022-09-28T01:02:19;94395.06;;;15.16;77.71
8292;BME280;4184;42.724;23.308;2022-09-28T01:04:49;94410.06;;;15.14;77.81
8292;BME280;4184;42.724;23.308;2022-09-28T01:07:18;94404.84;;;15.14;77.96
8292;BME280;4184;42.724;23.308;2022-09-28T01:09:45;94406.84;;;15.12;77.83
8292;BME280;4184;42.724;23.308;2022-09-28T01:12:13;94403.25;;;15.13;77.61
8292;BME280;4184;42.724;23.308;2022-09-28T01:14:42;94394.44;;;15.14;77.80
8292;BME280;4184;42.724;23.308;2022-09-28T01:17:14;94395.63;;;15.12;77.73
8292;BME280;4184;42.724;23.308;2022-09-28T01:20:05;94403.59;;;15.10;77.47
8292;BME280;4184;42.724;23.308;2022-09-28T01:25:41;94409.16;;;15.07;77.48
8292;BME280;4184;42.724;23.308;2022-09-28T01:28:15;94405.94;;;15.05;77.34
8292;BME280;4184;42.724;23.308;2022-09-28T01:30:49;94399.13;;;15.04;77.48
8292;BME280;4184;42.724;23.308;2022-09-28T01:33:22;94393.50;;;15.00;77.69
8292;BME280;4184;42.724;23.308;2022-09-28T01:35:54;94399.88;;;14.98;77.67
8292;BME280;4184;42.724;23.308;2022-09-28T01:38:28;94402.69;;;14.96;77.50
8292;BME280;4184;42.724;23.308;2022-09-28T01:40:57;94404.63;;;14.94;77.63
8292;BME280;4184;42.724;23.308;2022-09-28T01:43:29;94404.19;;;14.91;77.31
8292;BME280;4184;42.724;23.308;2022-09-28T01:46:01;94407.97;;;14.88;77.53
8292;BME280;4184;42.724;23.308;2022-09-28T01:48:36;94414.91;;;14.81;77.29
8292;BME280;4184;42.724;23.308;2022-09-28T01:51:08;94417.06;;;14.78;77.17
8292;BME280;4184;42.724;23.308;2022-09-28T01:53:41;94412.84;;;14.77;77.25
8292;BME280;4184;42.724;23.308;2022-09-28T01:56:12;94420.78;;;14.68;77.07
8292;BME280;4184;42.724;23.308;2022-09-28T01:58:45;94417.13;;;14.63;76.93
8292;BME280;4184;42.724;23.308;2022-09-28T02:01:17;94421.06;;;14.59;76.95
8292;BME280;4184;42.724;23.308;2022-09-28T02:03:49;94423.84;;;14.57;76.62
8292;BME280;4184;42.724;23.308;2022-09-28T02:06:25;94423.84;;;14.57;76.58
8292;BME280;4184;42.724;23.308;2022-09-28T02:08:57;94431.63;;;14.57;75.96
8292;BME280;4184;42.724;23.308;2022-09-28T02:11:27;94422.22;;;14.56;75.60
8292;BME280;4184;42.724;23.308;2022-09-28T02:13:59;94419.00;;;14.54;75.65
8292;BME280;4184;42.724;23.308;2022-09-28T02:16:33;94418.38;;;14.52;75.25
8292;BME280;4184;42.724;23.308;2022-09-28T02:19:02;94422.97;;;14.50;75.50
8292;BME280;4184;42.724;23.308;2022-09-28T02:21:32;94420.72;;;14.47;75.37
8292;BME280;4184;42.724;23.308;2022-09-28T02:24:07;94424.63;;;14.43;75.26
8292;BME280;4184;42.724;23.308;2022-09-28T02:26:41;94418.81;;;14.41;75.54
8292;BME280;4184;42.724;23.308;2022-09-28T02:29:12;94422.41;;;14.40;75.31
8292;BME280;4184;42.724;23.308;2022-09-28T02:31:39;94424.38;;;14.38;75.33
8292;BME280;4184;42.724;23.308;2022-09-28T02:34:07;94426.34;;;14.36;75.47
8292;BME280;4184;42.724;23.308;2022-09-28T02:36:35;94423.13;;;14.34;75.68
8292;BME280;4184;42.724;23.308;2022-09-28T02:39:03;94431.91;;;14.33;75.76
8292;BME280;4184;42.724;23.308;2022-09-28T02:41:42;94428.50;;;14.32;75.43
8292;BME280;4184;42.724;23.308;2022-09-28T02:44:37;94411.47;;;14.30;75.26
8292;BME280;4184;42.724;23.308;2022-09-28T02:47:20;94423.84;;;14.28;75.44
8292;BME280;4184;42.724;23.308;2022-09-28T02:49:55;94417.38;;;14.24;75.97
8292;BME280;4184;42.724;23.308;2022-09-28T02:52:46;94416.13;;;14.20;75.97
8292;BME280;4184;42.724;23.308;2022-09-28T02:55:27;94425.53;;;14.21;75.65
8292;BME280;4184;42.724;23.308;2022-09-28T02:58:10;94425.53;;;14.21;75.61
8292;BME280;4184;42.724;23.308;2022-09-28T03:00:50;94436.75;;;14.21;75.88
8292;BME280;4184;42.724;23.308;2022-09-28T03:03:26;94436.94;;;14.20;76.08
8292;BME280;4184;42.724;23.308;2022-09-28T03:05:58;94447.69;;;14.17;76.14
8292;BME280;4184;42.724;23.308;2022-09-28T03:08:31;94445.47;;;14.13;76.20
8292;BME280;4184;42.724;23.308;2022-09-28T03:11:03;94445.78;;;14.10;76.16
8292;BME280;4184;42.724;23.308;2022-09-28T03:13:32;94452.34;;;14.06;76.36
8292;BME280;4184;42.724;23.308;2022-09-28T03:16:12;94455.13;;;14.05;76.15
8292;BME280;4184;42.724;23.308;2022-09-28T03:18:40;94456.28;;;14.02;75.80
8292;BME280;4184;42.724;23.308;2022-09-28T03:21:09;94463.44;;;14.00;76.21
8292;BME280;4184;42.724;23.308;2022-09-28T03:23:38;94458.06;;;14.02;75.98
8292;BME280;4184;42.724;23.308;2022-09-28T03:26:07;94462.28;;;14.03;75.78
8292;BME280;4184;42.724;23.308;2022-09-28T03:28:35;94460.13;;;14.06;75.88
8292;BME280;4184;42.724;23.308;2022-09-28T03:31:02;94460.56;;;14.10;75.11
8292;BME280;4184;42.724;23.308;2022-09-28T03:33:31;94467.22;;;14.12;75.15
8292;BME280;4184;42.724;23.308;2022-09-28T03:35:59;94465.25;;;14.14;75.26
8292;BME280;4184;42.724;23.308;2022-09-28T03:38:29;94473.06;;;14.14;75.14
8292;BME280;4184;42.724;23.308;2022-09-28T03:40:58;94468.47;;;14.17;75.49
8292;BME280;4184;42.724;23.308;2022-09-28T03:43:27;94468.03;;;14.13;75.20
8292;BME280;4184;42.724;23.308;2022-09-28T03:45:58;94462.03;;;14.12;75.80
8292;BME280;4184;42.724;23.308;2022-09-28T03:48:27;94462.47;;;14.16;75.19
8292;BME280;4184;42.724;23.308;2022-09-28T03:50:57;94462.91;;;14.20;75.38
8292;BME280;4184;42.724;23.308;2022-09-28T03:53:25;94456.75;;;14.21;75.34
8292;BME280;4184;42.724;23.308;2022-09-28T03:55:54;94462.56;;;14.23;75.83
8292;BME280;4184;42.724;23.308;2022-09-28T03:58:22;94466.59;;;14.25;75.69
8292;BME280;4184;42.724;23.308;2022-09-28T04:00:50;94473.41;;;14.26;75.64
8292;BME280;4184;42.724;23.308;2022-09-28T04:03:21;94458.59;;;14.27;75.92
8292;BME280;4184;42.724;23.308;2022-09-28T04:05:56;94464.47;;;14.29;75.94
8292;BME280;4184;42.724;23.308;2022-09-28T04:08:25;94467.50;;;14.32;75.79
8292;BME280;4184;42.724;23.308;2022-09-28T04:10:56;94471.53;;;14.35;75.68
8292;BME280;4184;42.724;23.308;2022-09-28T04:13:27;94474.94;;;14.35;75.56
8292;BME280;4184;42.724;23.308;2022-09-28T04:15:57;94475.47;;;14.31;76.08
8292;BME280;4184;42.724;23.308;2022-09-28T04:18:25;94470.28;;;14.31;76.06
8292;BME280;4184;42.724;23.308;2022-09-28T04:21:04;94473.50;;;14.33;75.99
8292;BME280;4184;42.724;23.308;2022-09-28T04:23:33;94479.16;;;14.36;76.11
8292;BME280;4184;42.724;23.308;2022-09-28T04:26:01;94467.94;;;14.36;76.28
8292;BME280;4184;42.724;23.308;2022-09-28T04:28:29;94468.94;;;14.35;76.45
8292;BME280;4184;42.724;23.308;2022-09-28T04:31:16;94464.28;;;14.30;76.07
8292;BME280;4184;42.724;23.308;2022-09-28T04:33:44;94471.28;;;14.30;76.09
8292;BME280;4184;42.724;23.308;2022-09-28T04:36:13;94476.47;;;14.30;76.27
8292;BME280;4184;42.724;23.308;2022-09-28T04:38:41;94481.50;;;14.31;76.01
8292;BME280;4184;42.724;23.308;2022-09-28T04:41:08;94471.53;;;14.35;75.61
8292;BME280;4184;42.724;23.308;2022-09-28T04:43:37;94472.16;;;14.37;75.44
8292;BME280;4184;42.724;23.308;2022-09-28T04:46:04;94469.56;;;14.37;75.47
8292;BME280;4184;42.724;23.308;2022-09-28T04:48:32;94472.78;;;14.39;75.57
8292;BME280;4184;42.724;23.308;2022-09-28T04:51:00;94469.19;;;14.40;75.36
8292;BME280;4184;42.724;23.308;2022-09-28T04:53:29;94469.66;;;14.43;75.30
8292;BME280;4184;42.724;23.308;2022-09-28T04:55:58;94476.94;;;14.48;75.11
8292;BME280;4184;42.724;23.308;2022-09-28T04:58:27;94473.53;;;14.48;75.18
8292;BME280;4184;42.724;23.308;2022-09-28T05:00:57;94464.31;;;14.45;75.56
8292;BME280;4184;42.724;23.308;2022-09-28T05:03:25;94474.34;;;14.48;75.52
8292;BME280;4184;42.724;23.308;2022-09-28T05:05:54;94460.63;;;14.54;75.35
8292;BME280;4184;42.724;23.308;2022-09-28T05:08:21;94461.84;;;14.58;75.42
8292;BME280;4184;42.724;23.308;2022-09-28T05:10:56;94465.88;;;14.61;75.36
8292;BME280;4184;42.724;23.308;2022-09-28T05:13:25;94461.53;;;14.61;75.14
8292;BME280;4184;42.724;23.308;2022-09-28T05:15:53;94465.72;;;14.62;75.21
8292;BME280;4184;42.724;23.308;2022-09-28T05:18:21;94471.19;;;14.67;75.37
8292;BME280;4184;42.724;23.308;2022-09-28T05:20:49;94476.91;;;14.78;74.77
8292;BME280;4184;42.724;23.308;2022-09-28T05:23:16;94469.38;;;14.83;74.99
8292;BME280;4184;42.724;23.308;2022-09-28T05:25:44;94474.56;;;14.83;75.02
8292;BME280;4184;42.724;23.308;2022-09-28T05:28:13;94472.59;;;14.85;74.60
8292;BME280;4184;42.724;23.308;2022-09-28T05:30:46;94473.03;;;14.88;74.43
8292;BME280;4184;42.724;23.308;2022-09-28T05:33:13;94480.47;;;14.91;74.85
8292;BME280;4184;42.724;23.308;2022-09-28T05:35:41;94474.28;;;14.92;74.39
8292;BME280;4184;42.724;23.308;2022-09-28T05:38:08;94476.69;;;14.94;74.18
8292;BME280;4184;42.724;23.308;2022-09-28T05:40:36;94468.97;;;15.00;74.22
8292;BME280;4184;42.724;23.308;2022-09-28T05:43:03;94478.44;;;15.08;74.12
8292;BME280;4184;42.724;23.308;2022-09-28T05:45:32;94479.34;;;15.15;73.70
8292;BME280;4184;42.724;23.308;2022-09-28T05:48:00;94482.19;;;15.20;73.46
8292;BME280;4184;42.724;23.308;2022-09-28T05:50:28;94478.78;;;15.20;73.66
8292;BME280;4184;42.724;23.308;2022-09-28T05:52:59;94471.22;;;15.25;73.62
8292;BME280;4184;42.724;23.308;2022-09-28T05:55:27;94464.09;;;15.33;73.17
8292;BME280;4184;42.724;23.308;2022-09-28T05:57:57;94478.91;;;15.54;73.00
8292;BME280;4184;42.724;23.308;2022-09-28T06:00:25;94474.28;;;15.71;72.67
8292;BME280;4184;42.724;23.308;2022-09-28T06:03:00;94481.84;;;15.87;72.35
8292;BME280;4184;42.724;23.308;2022-09-28T06:05:28;94484.16;;;16.04;71.83
8292;BME280;4184;42.724;23.308;2022-09-28T06:07:57;94491.47;;;16.15;71.75
8292;BME280;4184;42.724;23.308;2022-09-28T06:10:27;94495.53;;;16.24;71.59
8292;BME280;4184;42.724;23.308;2022-09-28T06:12:55;94505.03;;;16.32;71.18
8292;BME280;4184;42.724;23.308;2022-09-28T06:15:24;94508.47;;;16.39;70.89
8292;BME280;4184;42.724;23.308;2022-09-28T06:17:57;94506.88;;;16.44;70.93
8292;BME280;4184;42.724;23.308;2022-09-28T06:20:26;94510.94;;;16.47;71.01
8292;BME280;4184;42.724;23.308;2022-09-28T06:22:55;94516.16;;;16.47;70.86
8292;BME280;4184;42.724;23.308;2022-09-28T06:25:23;94509.88;;;16.41;70.85
8292;BME280;4184;42.724;23.308;2022-09-28T06:27:56;94510.66;;;16.35;71.05
8292;BME280;4184;42.724;23.308;2022-09-28T06:30:26;94515.50;;;16.38;70.88
8292;BME280;4184;42.724;23.308;2022-09-28T06:32:55;94502.06;;;16.41;70.76
8292;BME280;4184;42.724;23.308;2022-09-28T06:35:26;94501.25;;;16.41;71.01
8292;BME280;4184;42.724;23.308;2022-09-28T06:37:55;94506.66;;;16.39;70.95
8292;BME280;4184;42.724;23.308;2022-09-28T06:40:23;94508.88;;;16.42;70.65
8292;BME280;4184;42.724;23.308;2022-09-28T06:42:54;94520.06;;;16.64;70.30
8292;BME280;4184;42.724;23.308;2022-09-28T06:45:23;94507.16;;;16.84;69.80
8292;BME280;4184;42.724;23.308;2022-09-28T06:47:54;94508.38;;;16.95;69.10
8292;BME280;4184;42.724;23.308;2022-09-28T06:50:25;94506.22;;;16.98;69.03
8292;BME280;4184;42.724;23.308;2022-09-28T06:52:53;94513.66;;;17.01;68.64
8292;BME280;4184;42.724;23.308;2022-09-28T06:55:22;94510.84;;;17.03;68.61
8292;BME280;4184;42.724;23.308;2022-09-28T06:57:56;94509.25;;;17.08;68.39
8292;BME280;4184;42.724;23.308;2022-09-28T07:00:25;94512.69;;;17.16;67.98
8292;BME280;4184;42.724;23.308;2022-09-28T07:02:53;94506.53;;;17.36;67.81
8292;BME280;4184;42.724;23.308;2022-09-28T07:05:20;94510.78;;;17.57;67.13
8292;BME280;4184;42.724;23.308;2022-09-28T07:07:54;94514.88;;;17.80;66.52
8292;BME280;4184;42.724;23.308;2022-09-28T07:10:22;94511.47;;;17.99;66.32
8292;BME280;4184;42.724;23.308;2022-09-28T07:12:50;94513.47;;;18.10;65.81
8292;BME280;4184;42.724;23.308;2022-09-28T07:15:18;94508.25;;;18.10;65.69
8292;BME280;4184;42.724;23.308;2022-09-28T07:17:46;94523.13;;;18.23;65.24
8292;BME280;4184;42.724;23.308;2022-09-28T07:20:14;94528.34;;;18.43;65.20
8292;BME280;4184;42.724;23.308;2022-09-28T07:22:42;94524.09;;;18.55;64.79
8292;BME280;4184;42.724;23.308;2022-09-28T07:25:11;94525.72;;;18.56;64.38
8292;BME280;4184;42.724;23.308;2022-09-28T07:27:39;94521.69;;;18.53;64.53
8292;BME280;4184;42.724;23.308;2022-09-28T07:30:12;94522.31;;;18.49;64.75
8292;BME280;4184;42.724;23.308;2022-09-28T07:32:39;94518.25;;;18.46;64.82
8292;BME280;4184;42.724;23.308;2022-09-28T07:35:08;94518.03;;;18.61;64.43
8292;BME280;4184;42.724;23.308;2022-09-28T07:37:36;94528.72;;;18.73;64.10
8292;BME280;4184;42.724;23.308;2022-09-28T07:40:05;94535.56;;;18.74;63.97
8292;BME280;4184;42.724;23.308;2022-09-28T07:42:52;94527.09;;;18.78;63.92
8292;BME280;4184;42.724;23.308;2022-09-28T07:45:20;94515.19;;;19.40;62.71
8292;BME280;4184;42.724;23.308;2022-09-28T07:47:49;94519.00;;;19.82;61.59
8292;BME280;4184;42.724;23.308;2022-09-28T07:50:17;94517.06;;;19.96;61.03
8292;BME280;4184;42.724;23.308;2022-09-28T07:52:46;94522.50;;;20.01;60.77
8292;BME280;4184;42.724;23.308;2022-09-28T07:55:14;94530.09;;;20.09;60.64
8292;BME280;4184;42.724;23.308;2022-09-28T07:57:42;94521.00;;;20.37;60.12
8292;BME280;4184;42.724;23.308;2022-09-28T08:00:15;94522.66;;;21.11;58.92
8292;BME280;4184;42.724;23.308;2022-09-28T08:02:43;94517.19;;;22.21;56.41
8292;BME280;4184;42.724;23.308;2022-09-28T08:05:10;94514.63;;;23.20;54.22
8292;BME280;4184;42.724;23.308;2022-09-28T08:07:38;94515.09;;;23.57;52.73
8292;BME280;4184;42.724;23.308;2022-09-28T08:10:06;94508.91;;;23.80;52.37
8292;BME280;4184;42.724;23.308;2022-09-28T08:12:34;94512.41;;;24.47;50.69
8292;BME280;4184;42.724;23.308;2022-09-28T08:15:07;94513.38;;;24.58;50.62
8292;BME280;4184;42.724;23.308;2022-09-28T08:17:38;94515.50;;;24.78;50.09
8292;BME280;4184;42.724;23.308;2022-09-28T08:20:07;94505.28;;;25.25;48.86
8292;BME280;4184;42.724;23.308;2022-09-28T08:22:52;94512.22;;;25.31;48.89
8292;BME280;4184;42.724;23.308;2022-09-28T08:25:19;94514.84;;;24.87;49.17
8292;BME280;4184;42.724;23.308;2022-09-28T08:27:47;94514.09;;;24.53;49.75
8292;BME280;4184;42.724;23.308;2022-09-28T08:30:15;94517.44;;;24.32;50.58
8292;BME280;4184;42.724;23.308;2022-09-28T08:32:47;94517.94;;;24.46;50.55
8292;BME280;4184;42.724;23.308;2022-09-28T08:35:15;94523.25;;;25.23;49.21
8292;BME280;4184;42.724;23.308;2022-09-28T08:37:42;94514.31;;;26.32;47.33
8292;BME280;4184;42.724;23.308;2022-09-28T08:40:17;94516.47;;;27.14;45.64
8292;BME280;4184;42.724;23.308;2022-09-28T08:42:53;94511.22;;;28.23;44.12
8292;BME280;4184;42.724;23.308;2022-09-28T08:45:26;94507.19;;;28.96;42.22
8292;BME280;4184;42.724;23.308;2022-09-28T08:48:00;94510.06;;;29.80;41.13
8292;BME280;4184;42.724;23.308;2022-09-28T08:50:50;94498.91;;;30.17;39.74
8292;BME280;4184;42.724;23.308;2022-09-28T08:53:30;94499.56;;;29.39;40.66
8292;BME280;4184;42.724;23.308;2022-09-28T08:56:04;94495.38;;;29.28;41.02
8292;BME280;4184;42.724;23.308;2022-09-28T08:58:37;94490.19;;;29.62;40.67
8292;BME280;4184;42.724;23.308;2022-09-28T09:01:08;94494.41;;;29.68;40.46
8292;BME280;4184;42.724;23.308;2022-09-28T09:03:40;94496.91;;;29.49;40.41
8292;BME280;4184;42.724;23.308;2022-09-28T09:06:17;94494.38;;;29.03;40.57
8292;BME280;4184;42.724;23.308;2022-09-28T09:08:55;94492.03;;;28.82;41.37
8292;BME280;4184;42.724;23.308;2022-09-28T09:11:38;94497.22;;;29.32;40.13
8292;BME280;4184;42.724;23.308;2022-09-28T09:14:34;94495.59;;;29.91;39.27
8292;BME280;4184;42.724;23.308;2022-09-28T09:17:13;94475.91;;;30.55;37.93
8292;BME280;4184;42.724;23.308;2022-09-28T09:19:51;94486.16;;;31.01;37.12
8292;BME280;4184;42.724;23.308;2022-09-28T09:22:26;94475.31;;;31.16;36.84
8292;BME280;4184;42.724;23.308;2022-09-28T09:25:06;94474.06;;;31.32;36.29
8292;BME280;4184;42.724;23.308;2022-09-28T09:27:49;94466.56;;;31.34;36.06
8292;BME280;4184;42.724;23.308;2022-09-28T09:30:20;94472.47;;;31.31;35.97
8292;BME280;4184;42.724;23.308;2022-09-28T09:33:05;94473.63;;;31.25;36.21
8292;BME280;4184;42.724;23.308;2022-09-28T09:36:06;94469.97;;;31.16;36.38
8292;BME280;4184;42.724;23.308;2022-09-28T09:38:45;94465.66;;;31.20;35.94
8292;BME280;4184;42.724;23.308;2022-09-28T09:41:25;94455.88;;;31.34;35.81
8292;BME280;4184;42.724;23.308;2022-09-28T09:44:11;94454.66;;;31.46;35.40
8292;BME280;4184;42.724;23.308;2022-09-28T09:46:43;94458.06;;;31.51;35.54
8292;BME280;4184;42.724;23.308;2022-09-28T09:49:18;94453.00;;;31.50;35.15
8292;BME280;4184;42.724;23.308;2022-09-28T09:51:54;94449.38;;;31.40;35.43
8292;BME280;4184;42.724;23.308;2022-09-28T09:54:52;94443.09;;;30.83;36.26
8292;BME280;4184;42.724;23.308;2022-09-28T09:57:44;94450.16;;;30.11;37.48
8292;BME280;4184;42.724;23.308;2022-09-28T10:00:17;94455.63;;;29.91;38.23
8292;BME280;4184;42.724;23.308;2022-09-28T10:02:47;94456.06;;;29.64;38.51
8292;BME280;4184;42.724;23.308;2022-09-28T10:05:19;94454.53;;;29.53;38.85
8292;BME280;4184;42.724;23.308;2022-09-28T10:07:53;94453.66;;;29.03;39.03
8292;BME280;4184;42.724;23.308;2022-09-28T10:10:25;94451.66;;;28.49;39.77
8292;BME280;4184;42.724;23.308;2022-09-28T10:12:54;94440.78;;;27.95;40.56
8292;BME280;4184;42.724;23.308;2022-09-28T10:15:24;94445.41;;;27.37;42.04
8292;BME280;4184;42.724;23.308;2022-09-28T10:17:54;94443.06;;;26.83;43.43
8292;BME280;4184;42.724;23.308;2022-09-28T10:20:23;94445.41;;;26.32;44.08
8292;BME280;4184;42.724;23.308;2022-09-28T10:22:56;94435.50;;;25.85;45.04
8292;BME280;4184;42.724;23.308;2022-09-28T10:25:28;94437.00;;;25.49;45.98
8292;BME280;4184;42.724;23.308;2022-09-28T10:27:57;94438.34;;;25.25;46.27
8292;BME280;4184;42.724;23.308;2022-09-28T10:30:25;94434.44;;;25.05;46.25
8292;BME280;4184;42.724;23.308;2022-09-28T10:32:54;94436.50;;;24.81;47.26
8292;BME280;4184;42.724;23.308;2022-09-28T10:35:26;94433.03;;;24.59;47.16
8292;BME280;4184;42.724;23.308;2022-09-28T10:37:57;94421.72;;;24.42;48.01
8292;BME280;4184;42.724;23.308;2022-09-28T10:40:38;94427.97;;;24.36;47.82
8292;BME280;4184;42.724;23.308;2022-09-28T10:43:16;94423.94;;;24.33;47.80
8292;BME280;4184;42.724;23.308;2022-09-28T10:45:44;94420.75;;;24.31;48.08
8292;BME280;4184;42.724;23.308;2022-09-28T10:48:18;94403.53;;;24.28;47.89
8292;BME280;4184;42.724;23.308;2022-09-28T10:51:02;94410.09;;;24.26;47.36
8292;BME280;4184;42.724;23.308;2022-09-28T10:53:33;94398.97;;;24.24;47.59
8292;BME280;4184;42.724;23.308;2022-09-28T10:56:04;94412.91;;;24.19;47.40
8292;BME280;4184;42.724;23.308;2022-09-28T10:58:37;94414.03;;;24.07;47.69
8292;BME280;4184;42.724;23.308;2022-09-28T11:01:08;94394.28;;;23.92;48.06
8292;BME280;4184;42.724;23.308;2022-09-28T11:03:47;94397.00;;;23.81;48.57
8292;BME280;4184;42.724;23.308;2022-09-28T11:06:23;94399.41;;;23.65;49.00
8292;BME280;4184;42.724;23.308;2022-09-28T11:08:53;94391.97;;;23.62;48.85
8292;BME280;4184;42.724;23.308;2022-09-28T11:11:23;94383.56;;;23.65;49.23
8292;BME280;4184;42.724;23.308;2022-09-28T11:13:52;94376.94;;;23.63;48.86
8292;BME280;4184;42.724;23.308;2022-09-28T11:16:26;94378.28;;;23.65;48.84
8292;BME280;4184;42.724;23.308;2022-09-28T11:18:55;94374.59;;;23.66;48.05
8292;BME280;4184;42.724;23.308;2022-09-28T11:21:25;94364.63;;;23.68;47.58
8292;BME280;4184;42.724;23.308;2022-09-28T11:24:03;94361.41;;;23.66;47.33
8292;BME280;4184;42.724;23.308;2022-09-28T11:26:41;94363.00;;;23.67;47.04
8292;BME280;4184;42.724;23.308;2022-09-28T11:29:21;94360.47;;;23.73;46.53
8292;BME280;4184;42.724;23.308;2022-09-28T11:31:50;94363.72;;;23.80;46.42
8292;BME280;4184;42.724;23.308;2022-09-28T11:34:21;94358.69;;;23.95;46.07
8292;BME280;4184;42.724;23.308;2022-09-28T11:37:11;94350.50;;;24.13;45.19
8292;BME280;4184;42.724;23.308;2022-09-28T11:39:49;94338.22;;;24.24;44.95
8292;BME280;4184;42.724;23.308;2022-09-28T11:42:31;94349.91;;;24.28;44.33
8292;BME280;4184;42.724;23.308;2022-09-28T11:45:11;94353.91;;;24.30;45.19
8292;BME280;4184;42.724;23.308;2022-09-28T11:47:51;94358.06;;;24.26;44.79
8292;BME280;4184;42.724;23.308;2022-09-28T11:50:29;94362.16;;;24.17;45.31
8292;BME280;4184;42.724;23.308;2022-09-28T11:53:08;94357.38;;;24.14;44.83
8292;BME280;4184;42.724;23.308;2022-09-28T11:55:42;94357.91;;;24.16;45.20
8292;BME280;4184;42.724;23.308;2022-09-28T11:58:19;94356.41;;;24.20;44.78
8292;BME280;4184;42.724;23.308;2022-09-28T12:00:51;94364.63;;;24.24;44.52
8292;BME280;4184;42.724;23.308;2022-09-28T12:03:24;94353.84;;;24.25;44.96
8292;BME280;4184;42.724;23.308;2022-09-28T12:05:58;94345.19;;;24.30;45.13
8292;BME280;4184;42.724;23.308;2022-09-28T12:08:29;94345.03;;;24.37;44.82
8292;BME280;4184;42.724;23.308;2022-09-28T12:11:02;94351.97;;;24.43;45.14
8292;BME280;4184;42.724;23.308;2022-09-28T12:13:36;94344.59;;;24.45;45.05
8292;BME280;4184;42.724;23.308;2022-09-28T12:16:08;94334.03;;;24.45;45.03
8292;BME280;4184;42.724;23.308;2022-09-28T12:18:45;94341.66;;;24.41;44.84
8292;BME280;4184;42.724;23.308;2022-09-28T12:21:27;94345.50;;;24.34;45.09
8292;BME280;4184;42.724;23.308;2022-09-28T12:24:04;94344.88;;;24.26;45.16
8292;BME280;4184;42.724;23.308;2022-09-28T12:26:43;94314.16;;;24.20;45.33
8292;BME280;4184;42.724;23.308;2022-09-28T12:29:15;94326.78;;;24.18;45.03
8292;BME280;4184;42.724;23.308;2022-09-28T12:31:58;94352.09;;;24.14;44.29
8292;BME280;4184;42.724;23.308;2022-09-28T12:34:27;94347.28;;;24.11;43.84
8292;BME280;4184;42.724;23.308;2022-09-28T12:37:07;94340.72;;;24.14;43.56
8292;BME280;4184;42.724;23.308;2022-09-28T12:39:49;94337.34;;;24.18;43.37
8292;BME280;4184;42.724;23.308;2022-09-28T12:42:44;94338.97;;;24.19;43.23
8292;BME280;4184;42.724;23.308;2022-09-28T12:45:32;94331.75;;;24.15;43.58
8292;BME280;4184;42.724;23.308;2022-09-28T12:48:20;94344.34;;;24.08;43.85
8292;BME280;4184;42.724;23.308;2022-09-28T12:51:00;94341.88;;;24.01;44.53
8292;BME280;4184;42.724;23.308;2022-09-28T12:53:57;94335.47;;;23.97;44.92
8292;BME280;4184;42.724;23.308;2022-09-28T12:56:36;94347.31;;;23.94;44.92
8292;BME280;4184;42.724;23.308;2022-09-28T12:59:17;94342.53;;;23.91;44.99
8292;BME280;4184;42.724;23.308;2022-09-28T13:02:00;94341.88;;;23.84;45.14
8292;BME280;4184;42.724;23.308;2022-09-28T13:04:50;94336.28;;;23.81;44.68
8292;BME280;4184;42.724;23.308;2022-09-28T13:07:26;94344.69;;;23.78;44.81
8292;BME280;4184;42.724;23.308;2022-09-28T13:10:08;94343.03;;;23.72;45.07
8292;BME280;4184;42.724;23.308;2022-09-28T13:12:47;94338.69;;;23.65;45.46
8292;BME280;4184;42.724;23.308;2022-09-28T13:15:36;94338.88;;;23.59;45.22
8292;BME280;4184;42.724;23.308;2022-09-28T13:18:16;94346.44;;;23.55;45.70
8292;BME280;4184;42.724;23.308;2022-09-28T13:20:57;94342.22;;;23.54;45.37
8292;BME280;4184;42.724;23.308;2022-09-28T13:23:33;94346.69;;;23.54;45.27
8292;BME280;4184;42.724;23.308;2022-09-28T13:26:09;94345.66;;;23.55;45.34
8292;BME280;4184;42.724;23.308;2022-09-28T13:28:40;94347.84;;;23.58;45.34
8292;BME280;4184;42.724;23.308;2022-09-28T13:31:10;94339.69;;;23.59;45.08
8292;BME280;4184;42.724;23.308;2022-09-28T13:33:41;94349.19;;;23.60;45.44
8292;BME280;4184;42.724;23.308;2022-09-28T13:36:37;94357.91;;;23.61;45.29
8292;BME280;4184;42.724;23.308;2022-09-28T13:39:33;94352.06;;;23.59;45.09
8292;BME280;4184;42.724;23.308;2022-09-28T13:42:02;94345.41;;;23.56;45.01
8292;BME280;4184;42.724;23.308;2022-09-28T13:44:46;94346.94;;;23.52;44.83